Dunwoody, GA (30338)

6:30 AM EDT op 25 september 2016 (GMT -0400)
Dunwoody Station | | Change Station

Hoogte 1138 ft 33.94 °N, 84.34 °W | Updated 4 minutes ago

Clear
Helder
69.1 °F
Voelt als 69.1 °F
N
0.0
Wind Variabel Wind van zuid

Vandaag
Hoog -- | Laag -- °F
--% Kans op neerslag
Gisteren
Hoog -- | Laag -- °F
Precip. -- inches
Druk 30.04 inches
Zicht 10.0 mijlen
Wolken Helder
Dauwpunt 64 °F
Vochtigheid 85%
Neerslag 0.00 inches
Dikte sneeuw Niet beschikbaar.
7:27 AM 7:29 PM
Afnemende halvemaan, 29% visible
METAR KPDK 250953Z AUTO 00000KT 10SM CLR 19/18 A3009 RMK AO2 SLP171 T01940178
Druk 30.04 inches
Zicht 10.0 mijlen
Wolken Helder
Dauwpunt 64 °F
Vochtigheid 85%
Neerslag 0.00 inches
Dikte sneeuw Niet beschikbaar.
7:27 AM 7:29 PM
Afnemende halvemaan, 29% visible
METAR KPDK 250953Z AUTO 00000KT 10SM CLR 19/18 A3009 RMK AO2 SLP171 T01940178

10-Day Weather Forecast

Almanac

Astronomie

Sep. 25, 2016 Opkomst Ondergang
Werkelijke tijd
Burgerlijke schemering
Nautische schemering
Astronomische schemering
Maan
Golflengte van het zichtbare licht
Daglengte
Tomorrow will be .
, % of the Moon is Illuminated

Extremen vandaag

State Highs State Lows

Community

WunderPhotos

Upload Photos

1,941,566 foto’s ge-upload!

WunderBlog® & News

Nearby

Luchtkwaliteit

  Luchtkwaliteit LK-index Verontreinigende stof
Not available.

Dikte sneeuw

Station Depth Geometrische hoogte

Aardbevingen

Stad Distance Mag. Time & Date
Minimum magnitude displayed is 2.5.

Watertemperatuur langs de kust

Plaats Temperatuur

Stations

Nabije weerstations

Locatie station Temp. Gevoelstemperatuur Dauwpunt Vochtigheid Wind Precip. Hoogte Geactualiseerd Type
                   

Watches & Warnings

There are currently no watches in effect.